Open Full Screen Window  High Contrast Mode
July 29, 2014 10:45 PM EDT
Weather Information
Wind Direction
  ---
Wind Speed
  00 kt (0 mph)
Wind Gust
  00 kt (0 mph)
Altimeter
29.96 in
Visibility
7 SM
Temperature
15° C
59° F
Dewpoint
13° C
55° F
Humidity
88%
1hr Rain Fall
00.00 in.
24hr Rain Fall
00.04 in.
Sky Condition
Scattered @ 4,000 ft
VFR

METAR KIKW 300245Z AUTO 00000KT 7SM SCT040 15/13 A2996 RMK AO2 T01450132

*Background is not an actual portrayal of the airport.